Time;durP1;ratioP1;P1;durP2;ratioP2;P2;SDS_P1;SDS_P2;PMS_P1;PMS_P2;Temp;Humidity;BMP_temperature;BMP_pressure;BME280_temperature;BME280_humidity;BME280_pressure;Samples;Min_cycle;Max_cycle;Signal;HPM_P1;HPM_P2
2021/06/29 00:01:22;;;;;;;;;;;22.30;57.50;;;;;;492465;242;1284;-73
2021/06/29 00:03:23;;;;;;;;;;;22.30;57.50;;;;;;492506;242;1056;-73
2021/06/29 00:05:24;;;;;;;;;;;22.30;57.50;;;;;;492549;242;1318;-74
2021/06/29 00:07:26;;;;;;;;;;;22.20;57.70;;;;;;492489;242;1184;-74
2021/06/29 00:09:27;;;;;;;;;;;22.20;57.60;;;;;;492570;242;989;-74
2021/06/29 00:11:28;;;;;;;;;;;22.20;57.60;;;;;;492467;242;2192;-74
2021/06/29 00:13:30;;;;;;;;;;;22.30;57.70;;;;;;492564;242;1120;-74
2021/06/29 00:15:31;;;;;;;;;;;22.20;57.70;;;;;;492538;242;1197;-74
2021/06/29 00:17:32;;;;;;;;;;;22.20;57.50;;;;;;492470;242;1181;-74
2021/06/29 00:19:34;;;;;;;;;;;22.20;57.70;;;;;;492573;242;1011;-74
2021/06/29 00:21:35;;;;;;;;;;;22.20;57.70;;;;;;492372;242;1207;-74
2021/06/29 00:23:38;;;;;;;;;;;22.20;57.60;;;;;;492542;242;984;-74
2021/06/29 00:25:39;;;;;;;;;;;22.20;57.50;;;;;;492579;242;1299;-74
2021/06/29 00:27:41;;;;;;;;;;;22.20;57.50;;;;;;492463;242;1159;-74
2021/06/29 00:29:42;;;;;;;;;;;22.20;57.60;;;;;;492524;242;1189;-74
2021/06/29 00:31:43;;;;;;;;;;;22.20;57.50;;;;;;492532;242;2140;-74
2021/06/29 00:33:45;;;;;;;;;;;22.20;57.70;;;;;;492549;242;933;-74
2021/06/29 00:35:46;;;;;;;;;;;22.20;57.70;;;;;;492528;242;1250;-74
2021/06/29 00:37:47;;;;;;;;;;;22.20;57.70;;;;;;492517;242;975;-74
2021/06/29 00:39:49;;;;;;;;;;;22.20;57.70;;;;;;492547;242;980;-74
2021/06/29 00:41:50;;;;;;;;;;;22.20;57.70;;;;;;492441;242;1220;-74
2021/06/29 00:43:51;;;;;;;;;;;22.20;57.60;;;;;;492537;242;1180;-74
2021/06/29 00:45:53;;;;;;;;;;;22.20;57.40;;;;;;492516;242;1197;-74
2021/06/29 00:47:54;;;;;;;;;;;22.20;57.50;;;;;;492465;242;1126;-74
2021/06/29 00:49:55;;;;;;;;;;;22.30;57.40;;;;;;492578;242;1163;-74
2021/06/29 00:51:57;;;;;;;;;;;22.30;57.30;;;;;;492323;242;2175;-74
2021/06/29 00:53:58;;;;;;;;;;;22.30;57.40;;;;;;492480;242;1096;-73
2021/06/29 00:55:59;;;;;;;;;;;22.30;57.30;;;;;;492506;242;1240;-73
2021/06/29 00:58:01;;;;;;;;;;;22.60;56.70;;;;;;492508;242;1142;-73
2021/06/29 01:00:02;;;;;;;;;;;22.40;56.80;;;;;;492603;242;1194;-74
2021/06/29 01:02:04;;;;;;;;;;;22.30;57.20;;;;;;492497;242;1226;-74
2021/06/29 01:04:05;;;;;;;;;;;22.30;57.40;;;;;;492635;242;930;-74
2021/06/29 01:06:06;;;;;;;;;;;22.30;57.40;;;;;;492474;242;1223;-74
2021/06/29 01:08:07;;;;;;;;;;;22.30;57.30;;;;;;492538;242;1097;-74
2021/06/29 01:10:09;;;;;;;;;;;22.30;57.40;;;;;;492654;242;1080;-74
2021/06/29 01:12:10;;;;;;;;;;;22.30;57.40;;;;;;492405;242;2168;-74
2021/06/29 01:14:11;;;;;;;;;;;22.20;57.50;;;;;;492559;242;1149;-74
2021/06/29 01:16:13;;;;;;;;;;;22.30;57.40;;;;;;492530;242;1358;-74
2021/06/29 01:18:14;;;;;;;;;;;22.30;57.40;;;;;;492554;242;1081;-74
2021/06/29 01:20:20;;;;;;;;;;;22.20;57.40;;;;;;492634;242;984;-74
2021/06/29 01:22:17;;;;;;;;;;;22.20;57.40;;;;;;492215;242;1403;-74
2021/06/29 01:24:20;;;;;;;;;;;22.20;57.30;;;;;;492485;242;1556;-74
2021/06/29 01:26:23;;;;;;;;;;;22.20;57.30;;;;;;492328;242;1431;-73
2021/06/29 01:28:26;;;;;;;;;;;22.20;57.40;;;;;;492437;242;1291;-73
2021/06/29 01:32:43;;;;;;;;;;;22.20;57.50;;;;;;492461;241;2144;-73
2021/06/29 01:34:44;;;;;;;;;;;22.30;57.40;;;;;;492574;242;937;-73
2021/06/29 01:36:49;;;;;;;;;;;22.20;57.50;;;;;;492511;242;1300;-73
2021/06/29 01:38:47;;;;;;;;;;;22.20;57.40;;;;;;492342;242;1392;-73
2021/06/29 01:40:48;;;;;;;;;;;22.10;57.60;;;;;;492514;242;1198;-73
2021/06/29 01:42:50;;;;;;;;;;;22.20;57.70;;;;;;492567;242;1082;-73
2021/06/29 01:44:51;;;;;;;;;;;22.10;57.60;;;;;;492578;242;1186;-74
2021/06/29 01:46:54;;;;;;;;;;;22.10;57.60;;;;;;492619;242;1251;-74
2021/06/29 01:48:54;;;;;;;;;;;22.20;57.50;;;;;;492436;242;1483;-74
2021/06/29 01:50:55;;;;;;;;;;;22.20;57.50;;;;;;492561;242;1229;-74
2021/06/29 01:52:57;;;;;;;;;;;22.20;57.50;;;;;;492542;238;2191;-73
2021/06/29 01:54:58;;;;;;;;;;;22.20;57.40;;;;;;492580;242;1039;-73
2021/06/29 01:57:00;;;;;;;;;;;22.20;57.30;;;;;;492533;242;1369;-73
2021/06/29 01:59:05;;;;;;;;;;;22.30;57.10;;;;;;492580;242;938;-74
2021/06/29 02:01:02;;;;;;;;;;;22.30;57.30;;;;;;492237;242;1360;-74
2021/06/29 02:03:04;;;;;;;;;;;22.20;57.50;;;;;;492503;242;1443;-74
2021/06/29 02:05:05;;;;;;;;;;;22.20;57.40;;;;;;492553;242;952;-74
2021/06/29 02:07:07;;;;;;;;;;;22.20;57.50;;;;;;492396;242;1159;-74
2021/06/29 02:09:08;;;;;;;;;;;22.20;57.50;;;;;;492529;242;1135;-74
2021/06/29 02:11:09;;;;;;;;;;;22.20;57.30;;;;;;492488;242;1228;-74
2021/06/29 02:13:11;;;;;;;;;;;22.20;57.40;;;;;;492519;242;2175;-74
2021/06/29 02:15:12;;;;;;;;;;;22.20;57.40;;;;;;492579;242;1192;-74
2021/06/29 02:17:13;;;;;;;;;;;22.20;57.30;;;;;;492461;242;1309;-74
2021/06/29 02:19:15;;;;;;;;;;;22.20;57.50;;;;;;492627;242;949;-74
2021/06/29 02:21:16;;;;;;;;;;;22.20;57.40;;;;;;492433;242;1235;-74
2021/06/29 02:23:17;;;;;;;;;;;22.20;57.30;;;;;;492500;242;1074;-74
2021/06/29 02:25:19;;;;;;;;;;;22.20;57.40;;;;;;492531;242;945;-74
2021/06/29 02:27:20;;;;;;;;;;;22.20;57.30;;;;;;492443;242;1140;-74
2021/06/29 02:29:22;;;;;;;;;;;22.20;57.30;;;;;;492518;242;1045;-74
2021/06/29 02:31:23;;;;;;;;;;;22.20;57.50;;;;;;492511;242;1205;-74
2021/06/29 02:33:24;;;;;;;;;;;22.20;57.40;;;;;;492539;242;2196;-74
2021/06/29 02:35:25;;;;;;;;;;;22.20;57.30;;;;;;492515;242;978;-74
2021/06/29 02:37:27;;;;;;;;;;;22.20;57.40;;;;;;492498;242;1226;-74
2021/06/29 02:39:28;;;;;;;;;;;22.10;57.50;;;;;;492536;242;930;-74
2021/06/29 02:41:29;;;;;;;;;;;22.10;57.60;;;;;;492531;242;1126;-74
2021/06/29 02:43:31;;;;;;;;;;;22.20;57.60;;;;;;492569;242;988;-74
2021/06/29 02:45:32;;;;;;;;;;;22.10;57.50;;;;;;492576;238;1290;-73
2021/06/29 02:47:34;;;;;;;;;;;22.10;57.60;;;;;;492497;242;1125;-74
2021/06/29 02:49:35;;;;;;;;;;;22.10;57.50;;;;;;492515;242;951;-74
2021/06/29 02:51:36;;;;;;;;;;;22.20;57.40;;;;;;492541;242;1183;-74
2021/06/29 02:53:37;;;;;;;;;;;22.10;57.40;;;;;;492643;242;2129;-74
2021/06/29 02:55:39;;;;;;;;;;;22.20;57.60;;;;;;492621;242;1216;-74
2021/06/29 02:57:40;;;;;;;;;;;22.20;57.40;;;;;;492485;242;1044;-74
2021/06/29 02:59:42;;;;;;;;;;;22.20;57.40;;;;;;492461;242;959;-73
2021/06/29 03:01:43;;;;;;;;;;;22.20;57.40;;;;;;492422;242;1338;-74
2021/06/29 03:03:44;;;;;;;;;;;22.20;57.40;;;;;;492565;242;1092;-74
2021/06/29 03:05:46;;;;;;;;;;;22.10;57.50;;;;;;492553;242;1198;-74
2021/06/29 03:07:47;;;;;;;;;;;22.20;57.50;;;;;;492603;242;1016;-73
2021/06/29 03:09:48;;;;;;;;;;;22.20;57.40;;;;;;492612;242;1200;-73
2021/06/29 03:11:50;;;;;;;;;;;22.20;57.40;;;;;;492525;242;1075;-74
2021/06/29 03:13:51;;;;;;;;;;;22.20;57.30;;;;;;492554;242;2129;-74
2021/06/29 03:15:52;;;;;;;;;;;22.20;57.30;;;;;;492604;242;1218;-74
2021/06/29 03:17:54;;;;;;;;;;;22.20;57.30;;;;;;492541;242;1065;-74
2021/06/29 03:19:55;;;;;;;;;;;22.20;57.40;;;;;;492593;242;1094;-74
2021/06/29 03:21:56;;;;;;;;;;;22.20;57.50;;;;;;492406;242;1020;-74
2021/06/29 03:23:58;;;;;;;;;;;22.20;57.40;;;;;;492526;242;988;-74
2021/06/29 03:25:59;;;;;;;;;;;22.20;57.50;;;;;;492543;242;1205;-74
2021/06/29 03:28:00;;;;;;;;;;;22.20;57.40;;;;;;492572;242;1150;-73
2021/06/29 03:30:02;;;;;;;;;;;22.20;57.50;;;;;;492539;242;1063;-73
2021/06/29 03:32:03;;;;;;;;;;;22.20;57.30;;;;;;492416;242;1304;-73
2021/06/29 03:34:04;;;;;;;;;;;22.20;57.30;;;;;;492558;242;2180;-73
2021/06/29 03:36:06;;;;;;;;;;;22.20;57.30;;;;;;492533;242;1218;-73
2021/06/29 03:38:07;;;;;;;;;;;22.20;57.30;;;;;;492560;242;1098;-74
2021/06/29 03:40:08;;;;;;;;;;;22.20;57.40;;;;;;492521;242;926;-74
2021/06/29 03:42:10;;;;;;;;;;;22.20;57.30;;;;;;492577;242;1115;-74
2021/06/29 03:44:11;;;;;;;;;;;22.20;57.50;;;;;;492600;242;1038;-74
2021/06/29 03:46:12;;;;;;;;;;;22.20;57.40;;;;;;492499;242;1209;-74
2021/06/29 03:48:14;;;;;;;;;;;22.20;57.50;;;;;;492617;242;940;-74
2021/06/29 03:50:15;;;;;;;;;;;22.10;57.60;;;;;;492542;242;1224;-74
2021/06/29 03:52:17;;;;;;;;;;;22.20;57.50;;;;;;492493;242;953;-74
2021/06/29 03:54:18;;;;;;;;;;;22.10;57.50;;;;;;492529;242;2192;-74
2021/06/29 03:56:29;;;;;;;;;;;22.20;57.50;;;;;;492511;242;1259;-74
2021/06/29 03:58:29;;;;;;;;;;;22.20;57.20;;;;;;492492;242;1168;-74
2021/06/29 04:00:31;;;;;;;;;;;22.20;57.40;;;;;;492541;242;948;-74
2021/06/29 04:02:32;;;;;;;;;;;22.20;57.40;;;;;;492557;242;1179;-73
2021/06/29 04:04:33;;;;;;;;;;;22.20;57.40;;;;;;492367;242;1055;-73
2021/06/29 04:06:35;;;;;;;;;;;22.20;57.50;;;;;;492203;242;959;-74
2021/06/29 04:08:36;;;;;;;;;;;22.20;57.40;;;;;;492211;242;1033;-74
2021/06/29 04:10:37;;;;;;;;;;;22.20;57.50;;;;;;492147;242;996;-74
2021/06/29 04:12:39;;;;;;;;;;;22.20;57.30;;;;;;492198;242;1056;-74
2021/06/29 04:14:40;;;;;;;;;;;22.20;57.20;;;;;;492223;242;2132;-74
2021/06/29 04:16:42;;;;;;;;;;;22.20;57.20;;;;;;492117;242;1326;-74
2021/06/29 04:18:43;;;;;;;;;;;22.20;57.30;;;;;;492184;242;1016;-74
2021/06/29 04:20:44;;;;;;;;;;;22.20;57.20;;;;;;492055;242;1015;-74
2021/06/29 04:22:45;;;;;;;;;;;22.20;57.30;;;;;;492163;242;1138;-74
2021/06/29 04:24:47;;;;;;;;;;;22.20;57.30;;;;;;492015;242;1234;-74
2021/06/29 04:26:48;;;;;;;;;;;22.30;57.20;;;;;;492090;242;1213;-74
2021/06/29 04:28:49;;;;;;;;;;;22.20;57.30;;;;;;492168;242;1023;-74
2021/06/29 04:30:51;;;;;;;;;;;22.20;57.20;;;;;;492150;242;948;-74
2021/06/29 04:32:52;;;;;;;;;;;22.20;57.30;;;;;;492126;242;1143;-74
2021/06/29 04:34:53;;;;;;;;;;;22.20;57.30;;;;;;492134;242;2093;-74
2021/06/29 04:36:55;;;;;;;;;;;22.10;57.40;;;;;;492003;242;1224;-74
2021/06/29 04:38:56;;;;;;;;;;;22.20;57.30;;;;;;492145;242;1183;-74
2021/06/29 04:40:57;;;;;;;;;;;22.20;57.30;;;;;;492122;242;1123;-74
2021/06/29 04:42:59;;;;;;;;;;;22.20;57.20;;;;;;492049;242;1103;-74
2021/06/29 04:45:00;;;;;;;;;;;22.20;57.30;;;;;;492086;242;1040;-74
2021/06/29 04:47:01;;;;;;;;;;;22.20;57.30;;;;;;491970;242;1220;-74
2021/06/29 04:49:03;;;;;;;;;;;22.10;57.30;;;;;;491985;242;1040;-74
2021/06/29 04:51:04;;;;;;;;;;;22.10;57.40;;;;;;491990;242;1032;-74
2021/06/29 04:53:05;;;;;;;;;;;22.10;57.40;;;;;;492052;242;1235;-74
2021/06/29 04:55:07;;;;;;;;;;;22.10;57.40;;;;;;492071;242;2128;-74
2021/06/29 04:57:08;;;;;;;;;;;22.10;57.50;;;;;;492002;242;1085;-74
2021/06/29 04:59:10;;;;;;;;;;;22.30;57.10;;;;;;492068;242;1015;-74
2021/06/29 05:01:11;;;;;;;;;;;22.20;57.10;;;;;;492006;242;1269;-73
2021/06/29 05:03:12;;;;;;;;;;;22.10;57.30;;;;;;491999;242;1294;-73
2021/06/29 05:05:14;;;;;;;;;;;22.10;57.30;;;;;;492122;242;1205;-74
2021/06/29 05:07:15;;;;;;;;;;;22.20;57.20;;;;;;491917;242;1110;-74
2021/06/29 05:09:16;;;;;;;;;;;22.10;57.40;;;;;;491894;242;1079;-74
2021/06/29 05:11:18;;;;;;;;;;;22.10;57.30;;;;;;491993;242;1004;-74
2021/06/29 05:13:19;;;;;;;;;;;22.10;57.50;;;;;;492084;242;2184;-73
2021/06/29 05:15:20;;;;;;;;;;;22.10;57.20;;;;;;491995;242;977;-74
2021/06/29 05:17:22;;;;;;;;;;;22.10;57.40;;;;;;491897;242;1137;-74
2021/06/29 05:19:23;;;;;;;;;;;22.10;57.30;;;;;;491905;242;1045;-74
2021/06/29 05:21:24;;;;;;;;;;;22.10;57.30;;;;;;491823;242;1103;-73
2021/06/29 05:23:26;;;;;;;;;;;22.10;57.30;;;;;;491888;242;1024;-74
2021/06/29 05:25:28;;;;;;;;;;;22.10;57.50;;;;;;491909;242;985;-74
2021/06/29 05:27:29;;;;;;;;;;;22.10;57.40;;;;;;491874;242;1435;-74
2021/06/29 05:29:30;;;;;;;;;;;22.10;57.40;;;;;;492005;242;1022;-74
2021/06/29 05:31:31;;;;;;;;;;;22.20;57.40;;;;;;491817;242;1193;-74
2021/06/29 05:33:33;;;;;;;;;;;22.20;57.30;;;;;;491877;242;2164;-74
2021/06/29 05:35:34;;;;;;;;;;;22.20;57.20;;;;;;491836;242;1049;-74
2021/06/29 05:37:35;;;;;;;;;;;22.20;57.00;;;;;;491824;242;1025;-74
2021/06/29 05:39:37;;;;;;;;;;;22.20;57.10;;;;;;491941;242;1055;-74
2021/06/29 05:41:38;;;;;;;;;;;22.20;57.10;;;;;;491860;242;1001;-74
2021/06/29 05:43:39;;;;;;;;;;;22.30;57.00;;;;;;491897;242;1083;-74
2021/06/29 05:45:41;;;;;;;;;;;22.30;56.90;;;;;;491845;242;972;-74
2021/06/29 05:47:43;;;;;;;;;;;22.30;56.90;;;;;;491840;242;1168;-73
2021/06/29 05:49:43;;;;;;;;;;;22.20;57.00;;;;;;491865;242;1243;-74
2021/06/29 05:51:46;;;;;;;;;;;22.20;57.20;;;;;;491879;242;995;-74
2021/06/29 05:53:46;;;;;;;;;;;22.10;57.30;;;;;;491771;242;2125;-74
2021/06/29 05:55:48;;;;;;;;;;;22.10;57.30;;;;;;491826;242;1033;-74
2021/06/29 05:57:49;;;;;;;;;;;22.20;57.30;;;;;;491812;242;1022;-74
2021/06/29 05:59:51;;;;;;;;;;;22.20;57.00;;;;;;491790;242;1011;-73
2021/06/29 06:01:52;;;;;;;;;;;22.20;57.20;;;;;;491664;242;1040;-73
2021/06/29 06:03:53;;;;;;;;;;;22.20;57.10;;;;;;491577;242;1390;-73
2021/06/29 06:05:55;;;;;;;;;;;22.20;57.20;;;;;;491648;242;1137;-74
2021/06/29 06:07:56;;;;;;;;;;;22.20;57.10;;;;;;491765;242;1082;-74
2021/06/29 06:09:57;;;;;;;;;;;22.20;57.30;;;;;;491698;242;1074;-74
2021/06/29 06:11:59;;;;;;;;;;;22.20;57.20;;;;;;491742;242;1056;-74
2021/06/29 06:14:00;;;;;;;;;;;22.20;57.20;;;;;;491598;242;2180;-73
2021/06/29 06:16:02;;;;;;;;;;;22.20;57.20;;;;;;491712;242;1137;-73
2021/06/29 06:18:03;;;;;;;;;;;22.10;57.20;;;;;;491639;238;1183;-74
2021/06/29 06:20:04;;;;;;;;;;;22.20;57.10;;;;;;491726;242;1172;-74
2021/06/29 06:22:05;;;;;;;;;;;22.20;57.10;;;;;;491674;242;1126;-74
2021/06/29 06:24:07;;;;;;;;;;;22.20;57.10;;;;;;491655;242;1079;-74
2021/06/29 06:26:08;;;;;;;;;;;22.20;57.10;;;;;;491660;242;1053;-74
2021/06/29 06:28:09;;;;;;;;;;;22.20;57.10;;;;;;491585;242;1045;-74
2021/06/29 06:30:11;;;;;;;;;;;22.20;57.30;;;;;;491640;242;1136;-74
2021/06/29 06:32:13;;;;;;;;;;;22.10;57.20;;;;;;491720;242;1212;-74
2021/06/29 06:34:15;;;;;;;;;;;22.10;57.30;;;;;;491743;238;2184;-74
2021/06/29 06:36:16;;;;;;;;;;;22.10;57.30;;;;;;491654;242;1051;-73
2021/06/29 06:38:17;;;;;;;;;;;22.10;57.40;;;;;;491652;242;1016;-73
2021/06/29 06:40:19;;;;;;;;;;;22.10;57.50;;;;;;491689;242;1029;-73
2021/06/29 06:42:20;;;;;;;;;;;22.10;57.40;;;;;;491588;242;1044;-73
2021/06/29 06:44:21;;;;;;;;;;;22.20;57.30;;;;;;491518;242;1094;-74
2021/06/29 06:46:23;;;;;;;;;;;22.10;57.30;;;;;;491470;242;1110;-74
2021/06/29 06:48:24;;;;;;;;;;;22.10;57.50;;;;;;491427;242;1316;-74
2021/06/29 06:50:25;;;;;;;;;;;22.10;57.90;;;;;;491354;242;1110;-74
2021/06/29 06:52:27;;;;;;;;;;;22.10;58.10;;;;;;491455;242;1086;-74
2021/06/29 06:54:28;;;;;;;;;;;22.10;58.40;;;;;;491484;242;2175;-74
2021/06/29 06:56:29;;;;;;;;;;;22.00;58.80;;;;;;491469;242;1099;-73
2021/06/29 06:58:31;;;;;;;;;;;22.10;59.00;;;;;;491272;242;1115;-73
2021/06/29 07:00:32;;;;;;;;;;;22.00;59.10;;;;;;491381;242;1072;-74
2021/06/29 07:02:33;;;;;;;;;;;22.00;59.40;;;;;;491487;242;1145;-73
2021/06/29 07:04:35;;;;;;;;;;;21.90;59.60;;;;;;491543;242;1143;-74
2021/06/29 07:06:36;;;;;;;;;;;21.90;59.80;;;;;;491540;242;1102;-73
2021/06/29 07:08:37;;;;;;;;;;;21.80;59.90;;;;;;491520;242;1003;-73
2021/06/29 07:10:39;;;;;;;;;;;21.80;60.00;;;;;;491445;242;1179;-74
2021/06/29 07:12:40;;;;;;;;;;;21.90;59.80;;;;;;491390;242;1082;-74
2021/06/29 07:14:41;;;;;;;;;;;22.00;59.70;;;;;;491379;242;2152;-73
2021/06/29 07:16:43;;;;;;;;;;;22.00;59.60;;;;;;491475;242;1224;-74
2021/06/29 07:18:44;;;;;;;;;;;22.10;59.40;;;;;;491353;242;1056;-74
2021/06/29 07:20:45;;;;;;;;;;;22.10;59.10;;;;;;491485;242;1192;-74
2021/06/29 07:22:47;;;;;;;;;;;22.20;59.00;;;;;;491650;242;1145;-74
2021/06/29 07:24:48;;;;;;;;;;;22.20;58.90;;;;;;491769;242;1012;-73
2021/06/29 07:26:49;;;;;;;;;;;22.20;58.90;;;;;;491383;242;1208;-74
2021/06/29 07:28:51;;;;;;;;;;;22.10;58.80;;;;;;491290;242;1055;-74
2021/06/29 07:30:52;;;;;;;;;;;22.10;58.60;;;;;;491328;242;1058;-74
2021/06/29 07:32:55;;;;;;;;;;;22.10;58.70;;;;;;491304;242;1298;-74
2021/06/29 07:34:55;;;;;;;;;;;22.20;58.60;;;;;;491205;242;2152;-74
2021/06/29 07:36:56;;;;;;;;;;;22.10;58.40;;;;;;491359;242;1342;-74
2021/06/29 07:38:57;;;;;;;;;;;22.20;58.30;;;;;;491443;242;1042;-74
2021/06/29 07:40:59;;;;;;;;;;;22.20;58.30;;;;;;491484;242;1018;-74
2021/06/29 07:43:00;;;;;;;;;;;22.20;58.20;;;;;;491275;242;1213;-74
2021/06/29 07:45:01;;;;;;;;;;;22.20;58.20;;;;;;491202;242;1259;-74
2021/06/29 07:47:03;;;;;;;;;;;22.20;58.20;;;;;;491264;242;1240;-74
2021/06/29 07:49:04;;;;;;;;;;;22.20;58.20;;;;;;491299;242;1342;-74
2021/06/29 07:51:06;;;;;;;;;;;22.20;58.30;;;;;;491377;242;1163;-74
2021/06/29 07:53:08;;;;;;;;;;;22.20;58.20;;;;;;491636;242;1473;-74
2021/06/29 07:55:08;;;;;;;;;;;22.20;58.10;;;;;;491587;242;2192;-74
2021/06/29 07:57:09;;;;;;;;;;;22.20;58.00;;;;;;491516;242;1047;-74
2021/06/29 07:59:11;;;;;;;;;;;22.50;57.70;;;;;;491465;242;1034;-74
2021/06/29 08:01:12;;;;;;;;;;;22.40;57.70;;;;;;491535;242;1061;-74
2021/06/29 08:03:13;;;;;;;;;;;22.30;57.70;;;;;;491385;242;1064;-74
2021/06/29 08:05:15;;;;;;;;;;;22.40;57.80;;;;;;491428;242;1154;-74
2021/06/29 08:07:16;;;;;;;;;;;22.20;57.80;;;;;;491362;242;1062;-74
2021/06/29 08:09:17;;;;;;;;;;;22.20;57.90;;;;;;491315;242;1051;-74
2021/06/29 08:11:19;;;;;;;;;;;22.20;58.10;;;;;;491354;242;1056;-74
2021/06/29 08:13:20;;;;;;;;;;;22.30;58.00;;;;;;491263;242;1059;-74
2021/06/29 08:15:22;;;;;;;;;;;22.30;58.00;;;;;;491297;242;2165;-74
2021/06/29 08:17:23;;;;;;;;;;;22.30;58.00;;;;;;491160;242;1085;-74
2021/06/29 08:19:24;;;;;;;;;;;22.40;57.80;;;;;;491161;242;1043;-73
2021/06/29 08:21:26;;;;;;;;;;;22.20;58.00;;;;;;491278;242;1230;-73
2021/06/29 08:23:27;;;;;;;;;;;22.20;58.20;;;;;;491377;242;1034;-74
2021/06/29 08:25:29;;;;;;;;;;;22.00;58.60;;;;;;491214;242;1034;-74
2021/06/29 08:27:30;;;;;;;;;;;22.00;58.80;;;;;;491471;242;1321;-73
2021/06/29 08:29:31;;;;;;;;;;;21.90;58.80;;;;;;491478;242;1068;-74
2021/06/29 08:31:33;;;;;;;;;;;22.00;58.90;;;;;;491409;242;1183;-74
2021/06/29 08:33:34;;;;;;;;;;;22.00;58.90;;;;;;492166;242;1309;-74
2021/06/29 08:35:35;;;;;;;;;;;22.00;58.90;;;;;;491359;242;2171;-73
2021/06/29 08:37:37;;;;;;;;;;;22.00;59.00;;;;;;491659;242;1255;-74
2021/06/29 08:39:38;;;;;;;;;;;22.00;58.90;;;;;;491427;242;1011;-74
2021/06/29 08:41:40;;;;;;;;;;;22.00;58.90;;;;;;491393;242;1058;-74
2021/06/29 08:43:41;;;;;;;;;;;21.90;58.90;;;;;;491450;242;1074;-74
2021/06/29 08:45:42;;;;;;;;;;;22.00;58.90;;;;;;491383;242;1035;-74
2021/06/29 08:47:44;;;;;;;;;;;21.90;59.10;;;;;;491463;242;1082;-74
2021/06/29 08:49:45;;;;;;;;;;;21.90;59.10;;;;;;491378;242;1039;-74
2021/06/29 08:51:46;;;;;;;;;;;21.90;59.10;;;;;;491458;242;1251;-74
2021/06/29 08:53:48;;;;;;;;;;;21.90;59.10;;;;;;491538;242;1026;-74
2021/06/29 08:55:49;;;;;;;;;;;21.90;59.30;;;;;;491466;242;2180;-74
2021/06/29 08:57:50;;;;;;;;;;;21.80;59.40;;;;;;491393;242;1171;-74
2021/06/29 08:59:52;;;;;;;;;;;21.80;59.60;;;;;;491305;242;1063;-74
2021/06/29 09:01:53;;;;;;;;;;;21.70;60.00;;;;;;491437;242;1106;-74
2021/06/29 09:03:54;;;;;;;;;;;21.70;60.10;;;;;;491459;242;1083;-74
2021/06/29 09:05:56;;;;;;;;;;;21.60;60.30;;;;;;491526;239;1281;-74
2021/06/29 09:07:57;;;;;;;;;;;21.70;60.50;;;;;;491456;242;1054;-74
2021/06/29 09:09:58;;;;;;;;;;;21.60;60.60;;;;;;491394;242;1089;-74
2021/06/29 09:12:00;;;;;;;;;;;21.50;60.80;;;;;;491470;242;1068;-75
2021/06/29 09:14:01;;;;;;;;;;;21.50;60.80;;;;;;491543;242;1032;-74
2021/06/29 09:16:02;;;;;;;;;;;21.50;61.00;;;;;;491568;242;2136;-74
2021/06/29 09:18:04;;;;;;;;;;;21.50;60.90;;;;;;491397;242;1051;-74
2021/06/29 09:20:05;;;;;;;;;;;21.50;61.00;;;;;;491390;242;1052;-74
2021/06/29 09:22:06;;;;;;;;;;;21.50;61.00;;;;;;491612;242;1267;-74
2021/06/29 09:24:08;;;;;;;;;;;21.40;61.20;;;;;;491492;242;1196;-74
2021/06/29 09:26:09;;;;;;;;;;;21.40;61.20;;;;;;491221;242;1124;-74
2021/06/29 09:28:10;;;;;;;;;;;21.40;61.30;;;;;;491444;242;1033;-74
2021/06/29 09:30:12;;;;;;;;;;;21.40;61.30;;;;;;491444;242;995;-74
2021/06/29 09:32:13;;;;;;;;;;;21.40;61.10;;;;;;491547;242;998;-73
2021/06/29 09:34:14;;;;;;;;;;;21.40;61.40;;;;;;491511;242;1044;-73
2021/06/29 09:36:16;;;;;;;;;;;21.30;61.30;;;;;;491430;239;2149;-73
2021/06/29 09:38:20;;;;;;;;;;;21.30;61.50;;;;;;491378;242;1005;-73
2021/06/29 09:40:21;;;;;;;;;;;21.40;61.40;;;;;;491323;242;2203;-73
2021/06/29 09:42:22;;;;;;;;;;;21.40;61.00;;;;;;491347;242;1018;-73
2021/06/29 09:44:24;;;;;;;;;;;21.50;60.60;;;;;;491368;242;978;-73
2021/06/29 09:46:25;;;;;;;;;;;21.40;60.70;;;;;;491300;242;1389;-73
2021/06/29 09:48:26;;;;;;;;;;;21.40;61.00;;;;;;491316;242;1055;-73
2021/06/29 09:50:27;;;;;;;;;;;21.40;61.10;;;;;;491413;242;1024;-73
2021/06/29 09:52:29;;;;;;;;;;;21.30;61.10;;;;;;491560;242;1099;-73
2021/06/29 09:54:30;;;;;;;;;;;21.40;61.20;;;;;;491388;242;1025;-73
2021/06/29 09:56:36;;;;;;;;;;;21.30;61.20;;;;;;491409;242;2141;-73
2021/06/29 09:58:33;;;;;;;;;;;21.30;61.10;;;;;;491226;242;1434;-73
2021/06/29 10:00:34;;;;;;;;;;;21.40;61.10;;;;;;491487;242;1081;-73
2021/06/29 10:02:37;;;;;;;;;;;21.30;61.10;;;;;;491545;242;1259;-73
2021/06/29 10:04:37;;;;;;;;;;;21.40;60.90;;;;;;491314;242;1354;-73
2021/06/29 10:06:38;;;;;;;;;;;21.40;60.80;;;;;;491502;242;1316;-73
2021/06/29 10:08:40;;;;;;;;;;;21.50;60.60;;;;;;491562;242;1161;-73
2021/06/29 10:10:41;;;;;;;;;;;21.50;60.40;;;;;;491412;242;991;-73
2021/06/29 10:12:42;;;;;;;;;;;21.50;60.40;;;;;;491413;242;1384;-73
2021/06/29 10:14:44;;;;;;;;;;;21.50;60.30;;;;;;491455;242;1058;-73
2021/06/29 10:16:45;;;;;;;;;;;21.60;60.20;;;;;;491515;242;2237;-73
2021/06/29 10:18:52;;;;;;;;;;;21.60;60.20;;;;;;491496;242;988;-73
2021/06/29 10:20:52;;;;;;;;;;;21.60;60.20;;;;;;491445;242;1236;-73
2021/06/29 10:22:53;;;;;;;;;;;21.60;60.20;;;;;;491424;242;2396;-73
2021/06/29 10:24:53;;;;;;;;;;;21.60;60.00;;;;;;491484;242;1320;-73
2021/06/29 10:26:55;;;;;;;;;;;21.70;59.90;;;;;;491604;242;1089;-73
2021/06/29 10:28:56;;;;;;;;;;;21.70;59.80;;;;;;492207;242;843;-73
2021/06/29 10:30:58;;;;;;;;;;;21.70;59.70;;;;;;491602;242;1493;-74
2021/06/29 10:33:01;;;;;;;;;;;21.70;59.60;;;;;;491142;242;1208;-73
2021/06/29 10:35:00;;;;;;;;;;;21.70;59.50;;;;;;491107;242;1249;-73
2021/06/29 10:37:02;;;;;;;;;;;21.70;59.50;;;;;;491344;242;2176;-73
2021/06/29 10:39:03;;;;;;;;;;;21.70;59.70;;;;;;491367;242;1166;-73
2021/06/29 10:41:04;;;;;;;;;;;21.70;59.70;;;;;;491385;242;1161;-73
2021/06/29 10:43:06;;;;;;;;;;;21.70;59.70;;;;;;491462;242;1098;-73
2021/06/29 10:45:07;;;;;;;;;;;21.80;59.50;;;;;;491337;242;1044;-73
2021/06/29 10:47:09;;;;;;;;;;;21.80;59.40;;;;;;491361;242;1138;-73
2021/06/29 10:49:10;;;;;;;;;;;21.80;59.40;;;;;;491566;242;1067;-73
2021/06/29 10:51:11;;;;;;;;;;;21.90;59.40;;;;;;491544;242;1463;-73
2021/06/29 10:53:13;;;;;;;;;;;21.80;59.40;;;;;;491525;242;1158;-74
2021/06/29 10:55:14;;;;;;;;;;;21.80;59.40;;;;;;491407;242;1036;-73
2021/06/29 10:57:16;;;;;;;;;;;21.80;59.40;;;;;;491344;242;2118;-73
2021/06/29 10:59:17;;;;;;;;;;;21.80;59.50;;;;;;491420;242;1098;-73
2021/06/29 11:01:18;;;;;;;;;;;21.80;59.50;;;;;;491309;242;1612;-73
2021/06/29 11:03:20;;;;;;;;;;;21.80;59.70;;;;;;491313;242;1056;-73
2021/06/29 11:05:21;;;;;;;;;;;21.70;59.80;;;;;;491483;242;1041;-73
2021/06/29 11:07:22;;;;;;;;;;;21.60;60.00;;;;;;491489;242;1142;-73
2021/06/29 11:09:24;;;;;;;;;;;21.60;60.10;;;;;;491490;242;1028;-74
2021/06/29 11:11:25;;;;;;;;;;;21.60;60.30;;;;;;491456;242;1157;-73
2021/06/29 11:13:27;;;;;;;;;;;21.60;60.40;;;;;;491296;242;1006;-73
2021/06/29 11:15:28;;;;;;;;;;;21.60;60.60;;;;;;491278;242;2169;-73
2021/06/29 11:17:29;;;;;;;;;;;21.60;60.80;;;;;;491304;242;1080;-73
2021/06/29 11:19:31;;;;;;;;;;;21.50;61.00;;;;;;491252;242;1005;-73
2021/06/29 11:21:33;;;;;;;;;;;21.40;61.10;;;;;;491258;242;1016;-73
2021/06/29 11:23:33;;;;;;;;;;;21.40;61.00;;;;;;491263;242;1217;-73
2021/06/29 11:25:35;;;;;;;;;;;21.50;60.90;;;;;;491371;242;1135;-73
2021/06/29 11:27:36;;;;;;;;;;;21.40;60.80;;;;;;491344;242;1044;-73
2021/06/29 11:29:37;;;;;;;;;;;21.40;61.10;;;;;;491323;242;1152;-73
2021/06/29 11:31:40;;;;;;;;;;;21.40;61.00;;;;;;491283;242;1100;-73
2021/06/29 11:33:40;;;;;;;;;;;21.40;61.00;;;;;;491206;242;1480;-73
2021/06/29 11:35:41;;;;;;;;;;;21.40;61.20;;;;;;491174;242;2179;-73
2021/06/29 11:37:43;;;;;;;;;;;21.40;61.30;;;;;;491312;242;1173;-73
2021/06/29 11:39:46;;;;;;;;;;;21.30;61.40;;;;;;491400;242;1048;-73
2021/06/29 11:41:45;;;;;;;;;;;21.30;61.40;;;;;;491247;242;1357;-74
2021/06/29 11:43:47;;;;;;;;;;;21.30;61.10;;;;;;491441;242;1275;-73
2021/06/29 11:45:48;;;;;;;;;;;21.40;61.10;;;;;;491126;242;1071;-73
2021/06/29 11:47:49;;;;;;;;;;;21.40;61.10;;;;;;491157;242;1076;-73
2021/06/29 11:49:51;;;;;;;;;;;21.30;61.10;;;;;;491089;242;1109;-73
2021/06/29 11:51:52;;;;;;;;;;;21.40;61.30;;;;;;491145;242;1175;-73
2021/06/29 11:53:53;;;;;;;;;;;21.40;61.20;;;;;;491234;242;1135;-73
2021/06/29 11:55:55;;;;;;;;;;;21.40;61.10;;;;;;490877;242;2192;-73
2021/06/29 11:57:57;;;;;;;;;;;21.30;61.10;;;;;;491223;242;1085;-73
2021/06/29 11:59:58;;;;;;;;;;;21.40;60.80;;;;;;491213;242;1376;-73